Time;durP1;ratioP1;P1;durP2;ratioP2;P2;SDS_P1;SDS_P2;PMS_P1;PMS_P2;Temp;Humidity;BMP_temperature;BMP_pressure;BME280_temperature;BME280_humidity;BME280_pressure;Samples;Min_cycle;Max_cycle;Signal;HPM_P1;HPM_P2
2021/03/25 00:01:39;;;;;;;77.20;33.28;;;6.40;99.90;;;6.07;100.00;101985.75;5028228;28;20105;-67
2021/03/25 00:04:06;;;;;;;69.65;29.40;;;6.50;99.90;;;6.10;100.00;101988.16;5023479;28;20629;-64
2021/03/25 00:06:36;;;;;;;76.75;31.33;;;6.50;99.90;;;6.08;100.00;101979.34;5009152;28;20037;-65
2021/03/25 00:09:07;;;;;;;67.55;31.45;;;6.50;99.90;;;6.03;100.00;101978.91;5027810;28;20075;-65
2021/03/25 00:11:32;;;;;;;68.93;30.73;;;6.40;99.90;;;5.98;100.00;101981.19;5021645;28;20050;-65
2021/03/25 00:13:58;;;;;;;75.50;32.08;;;6.40;99.90;;;5.95;100.00;101983.34;5026114;28;20152;-66
2021/03/25 00:16:24;;;;;;;76.22;31.15;;;6.40;99.90;;;5.87;100.00;101981.28;5028224;28;20127;-66
2021/03/25 00:18:50;;;;;;;81.13;30.77;;;6.30;99.90;;;5.78;100.00;101979.44;5024014;28;20056;-67
2021/03/25 00:21:15;;;;;;;84.43;32.25;;;6.20;99.90;;;5.74;100.00;101980.75;4994066;28;20144;-68
2021/03/25 00:23:41;;;;;;;79.13;30.13;;;6.20;99.90;;;5.68;100.00;101978.59;5027197;28;20041;-65
2021/03/25 00:26:07;;;;;;;73.78;30.45;;;6.20;99.90;;;5.68;100.00;101976.72;5010202;28;20037;-65
2021/03/25 00:28:33;;;;;;;78.13;33.05;;;6.10;99.90;;;5.63;100.00;101967.38;5013501;28;20029;-66
2021/03/25 00:30:59;;;;;;;72.22;32.50;;;6.10;99.90;;;5.55;100.00;101969.88;5026619;28;20037;-67
2021/03/25 00:33:25;;;;;;;78.75;32.13;;;6.00;99.90;;;5.53;100.00;101971.91;5024787;28;20034;-66
2021/03/25 00:35:51;;;;;;;69.93;30.88;;;6.00;99.90;;;5.51;100.00;101965.78;5025450;28;20049;-70
2021/03/25 00:38:18;;;;;;;77.78;30.88;;;5.90;99.90;;;5.53;100.00;101961.91;5009206;28;20142;-67
2021/03/25 00:40:47;;;;;;;83.32;33.20;;;5.90;99.90;;;5.50;100.00;101961.38;5011320;28;20136;-67
2021/03/25 00:43:18;;;;;;;75.82;31.00;;;5.90;99.90;;;5.44;100.00;101969.03;5026049;28;20045;-67
2021/03/25 00:45:47;;;;;;;77.40;32.28;;;5.90;99.90;;;5.43;100.00;101961.91;5024063;28;20030;-68
2021/03/25 00:48:16;;;;;;;76.78;31.33;;;5.80;99.90;;;5.41;100.00;101963.94;5011435;28;20450;-69
2021/03/25 00:50:54;;;;;;;78.57;31.38;;;5.80;99.90;;;5.38;100.00;101958.81;5010157;28;20096;-68
2021/03/25 00:53:24;;;;;;;76.35;31.40;;;5.80;99.90;;;5.35;100.00;101953.66;5021861;28;20025;-67
2021/03/25 00:55:51;;;;;;;71.30;30.70;;;5.80;99.90;;;5.30;100.00;101960.50;5026952;28;20041;-68
2021/03/25 00:58:18;;;;;;;81.85;30.42;;;5.70;99.90;;;5.30;100.00;101955.94;5028016;28;20083;-69
2021/03/25 01:00:47;;;;;;;75.20;31.50;;;5.70;99.90;;;5.24;100.00;101955.63;5027187;28;20033;-67
2021/03/25 01:03:16;;;;;;;73.88;31.48;;;5.70;99.90;;;5.23;100.00;101954.78;5005702;28;20034;-69
2021/03/25 01:05:42;;;;;;;82.60;32.83;;;5.70;99.90;;;5.20;100.00;101957.75;5012562;28;20033;-71
2021/03/25 01:08:09;;;;;;;71.85;31.98;;;5.70;99.90;;;5.18;100.00;101956.19;5008596;28;20037;-68
2021/03/25 01:10:38;;;;;;;76.60;30.58;;;5.60;99.90;;;5.21;100.00;101951.34;5028424;28;20033;-70
2021/03/25 01:13:21;;;;;;;74.35;30.25;;;5.60;99.90;;;5.25;100.00;101955.50;5025543;28;20049;-68
2021/03/25 01:15:46;;;;;;;71.43;30.67;;;5.70;99.90;;;5.29;100.00;101948.84;5040569;28;20025;-66
2021/03/25 01:18:12;;;;;;;77.53;30.55;;;5.60;99.90;;;5.39;100.00;101938.91;5007853;28;20049;-66
2021/03/25 01:20:41;;;;;;;68.88;30.23;;;5.70;99.90;;;5.45;100.00;101941.03;5017480;28;20172;-66
2021/03/25 01:23:08;;;;;;;68.72;29.48;;;5.70;99.90;;;5.50;100.00;101937.06;5025230;28;20549;-67
2021/03/25 01:25:36;;;;;;;78.88;31.45;;;5.70;99.90;;;5.60;100.00;101941.47;5028556;28;20036;-67
2021/03/25 01:28:07;;;;;;;60.33;27.00;;;5.80;99.90;;;5.70;100.00;101936.09;5025803;28;20050;-66
2021/03/25 01:30:34;;;;;;;62.97;27.33;;;5.90;99.90;;;5.79;100.00;101935.22;5028515;28;20516;-67
2021/03/25 01:33:00;;;;;;;61.45;27.75;;;6.00;99.90;;;5.86;100.00;101941.78;5011439;28;20057;-67
2021/03/25 01:35:28;;;;;;;65.90;27.55;;;6.10;99.90;;;5.84;100.00;101938.38;5026680;28;20040;-68
2021/03/25 01:37:54;;;;;;;64.82;27.30;;;6.10;99.90;;;6.04;100.00;101936.53;5023109;28;20047;-66
2021/03/25 01:40:27;;;;;;;55.28;26.67;;;6.30;99.90;;;6.18;100.00;101936.94;5010679;28;20049;-67
2021/03/25 01:43:11;;;;;;;56.53;27.05;;;6.40;99.90;;;6.30;100.00;101931.38;5016940;28;20128;-64
2021/03/25 01:46:05;;;;;;;56.03;26.45;;;6.50;99.90;;;6.39;100.00;101939.44;5023515;28;20564;-67
2021/03/25 01:48:38;;;;;;;66.10;27.37;;;6.60;99.90;;;6.48;100.00;101932.31;5036969;28;21490;-68
2021/03/25 01:51:41;;;;;;;67.43;28.48;;;6.70;99.90;;;6.53;100.00;101935.44;5028292;28;20081;-68
2021/03/25 01:54:13;;;;;;;58.22;26.17;;;6.80;99.90;;;6.63;100.00;101940.81;5004275;28;20041;-66
2021/03/25 01:57:12;;;;;;;56.40;26.05;;;6.90;99.90;;;6.66;100.00;101946.75;5022133;28;20488;-65
2021/03/25 02:00:06;;;;;;;55.22;24.80;;;7.00;99.90;;;6.66;100.00;101944.03;5026760;28;20037;-66
2021/03/25 02:03:02;;;;;;;53.88;24.65;;;7.00;99.90;;;6.78;99.62;101934.75;5024526;28;20029;-68
2021/03/25 02:05:33;;;;;;;60.30;25.40;;;7.10;99.90;;;6.90;99.65;101938.97;5028630;28;20545;-67
2021/03/25 02:08:16;;;;;;;55.97;25.05;;;7.10;99.90;;;6.78;98.86;101940.16;5020516;28;20487;-65
2021/03/25 02:11:20;;;;;;;57.08;25.20;;;7.10;99.90;;;7.00;98.86;101932.69;5019616;28;20038;-66
2021/03/25 02:14:22;;;;;;;49.42;23.10;;;7.20;99.90;;;6.96;98.16;101926.69;5025499;28;20041;-66
2021/03/25 02:17:10;;;;;;;52.78;23.52;;;7.30;99.90;;;6.92;97.94;101936.97;5005198;28;20211;-68
2021/03/25 02:20:38;;;;;;;55.10;24.67;;;7.30;99.90;;;7.05;97.98;101930.34;5027471;28;20488;-67
2021/03/25 02:23:28;;;;;;;47.70;23.35;;;7.30;99.90;;;7.19;97.70;101930.72;5025991;28;20125;-70
2021/03/25 02:26:19;;;;;;;47.67;22.50;;;7.40;99.90;;;7.19;97.12;101932.56;5021415;28;20037;-68
2021/03/25 02:29:08;;;;;;;48.15;22.95;;;7.40;99.90;;;7.25;97.12;101927.38;5011635;28;20392;-66
2021/03/25 02:31:46;;;;;;;54.30;24.42;;;7.50;99.90;;;7.24;96.84;101924.81;5029011;28;20037;-65
2021/03/25 02:34:22;;;;;;;54.35;23.88;;;7.50;99.90;;;7.33;96.06;101918.50;5021783;28;20064;-70
2021/03/25 02:36:58;;;;;;;53.35;25.52;;;7.60;99.90;;;7.36;96.19;101928.16;5009294;28;20080;-69
2021/03/25 02:40:06;;;;;;;53.97;24.60;;;7.60;99.90;;;7.36;96.21;101929.00;5026861;28;20034;-67
2021/03/25 02:42:45;;;;;;;55.53;22.80;;;7.60;99.90;;;7.45;96.45;101922.66;5028754;28;20040;-66
2021/03/25 02:45:32;;;;;;;54.63;23.48;;;7.70;99.90;;;7.43;95.48;101927.41;5001952;28;20345;-69
2021/03/25 02:48:08;;;;;;;52.83;22.92;;;7.70;99.90;;;7.34;95.79;101920.19;5018881;28;20496;-70
2021/03/25 02:51:18;;;;;;;52.28;24.13;;;7.70;99.90;;;7.40;95.67;101922.31;5024588;28;20557;-68
2021/03/25 02:53:46;;;;;;;55.55;23.65;;;7.70;99.90;;;7.46;95.49;101918.97;5029949;28;20510;-66
2021/03/25 02:56:35;;;;;;;52.67;24.30;;;7.80;99.90;;;7.50;95.23;101917.66;5026309;28;20068;-67
2021/03/25 02:59:29;;;;;;;52.08;23.38;;;7.80;99.90;;;7.54;94.76;101919.06;5030568;28;20510;-67
2021/03/25 03:02:09;;;;;;;49.45;22.63;;;7.80;99.90;;;7.53;95.12;101913.81;5027633;28;20391;-66
2021/03/25 03:04:38;;;;;;;45.60;23.73;;;7.80;99.90;;;7.48;95.15;101916.97;5028153;28;20554;-67
2021/03/25 03:07:17;;;;;;;47.15;22.98;;;7.70;99.90;;;7.49;95.41;101912.38;5013202;28;20488;-66
2021/03/25 03:09:47;;;;;;;52.92;25.08;;;7.80;99.90;;;7.43;95.86;101913.88;5031065;28;20033;-67
2021/03/25 03:12:18;;;;;;;52.60;23.80;;;7.80;99.90;;;7.49;95.34;101923.22;5026817;28;20033;-66
2021/03/25 03:15:01;;;;;;;52.17;24.42;;;7.80;99.90;;;7.52;95.00;101926.50;5028356;28;20053;-66
2021/03/25 03:17:48;;;;;;;50.83;23.45;;;7.80;99.90;;;7.57;94.90;101926.00;5029578;28;20507;-68
2021/03/25 03:20:36;;;;;;;57.10;24.58;;;7.90;99.90;;;7.55;95.40;101919.91;5015176;28;20056;-67
2021/03/25 03:23:03;;;;;;;52.80;23.92;;;7.90;99.90;;;7.62;95.28;101924.56;5025878;28;20041;-67
2021/03/25 03:25:29;;;;;;;56.45;24.00;;;7.90;99.90;;;7.57;95.04;101921.44;5026299;28;20030;-65
2021/03/25 03:28:26;;;;;;;50.35;24.58;;;7.90;99.90;;;7.61;95.09;101919.28;5028833;28;20037;-65
2021/03/25 03:31:03;;;;;;;62.92;25.65;;;8.00;99.90;;;7.66;94.36;101925.09;5018412;28;20381;-66
2021/03/25 03:33:43;;;;;;;59.33;26.65;;;8.00;99.90;;;7.71;94.62;101921.91;5028315;28;20025;-66
2021/03/25 03:36:15;;;;;;;60.90;27.17;;;8.00;99.90;;;7.74;94.35;101913.47;5013355;28;20124;-66
2021/03/25 03:38:54;;;;;;;57.30;25.65;;;8.00;99.90;;;7.80;94.36;101908.28;5037772;28;20080;-65
2021/03/25 03:41:51;;;;;;;51.25;26.08;;;8.00;99.90;;;7.73;94.64;101911.78;5027573;28;20506;-66
2021/03/25 03:44:27;;;;;;;48.42;26.23;;;8.10;99.90;;;7.75;94.45;101909.78;5007051;28;20048;-66
2021/03/25 03:46:56;;;;;;;56.55;27.35;;;8.00;99.90;;;7.73;94.53;101900.94;5012654;28;20037;-67
2021/03/25 03:49:37;;;;;;;60.53;25.15;;;8.00;99.90;;;7.75;94.33;101907.06;5014095;28;20073;-64
2021/03/25 03:52:14;;;;;;;56.72;25.17;;;8.00;99.90;;;7.74;94.97;101906.19;5012915;28;20491;-65
2021/03/25 03:54:42;;;;;;;57.70;27.00;;;8.10;99.90;;;7.73;95.28;101903.66;5007187;28;20037;-65
2021/03/25 03:57:40;;;;;;;57.92;27.33;;;8.00;99.90;;;7.70;94.90;101907.50;5008483;28;20381;-65
2021/03/25 04:00:34;;;;;;;62.55;26.52;;;8.10;99.90;;;7.72;95.17;101901.94;5021047;28;20431;-65
2021/03/25 04:03:15;;;;;;;58.15;26.40;;;8.10;99.90;;;7.71;95.29;101906.50;5027272;28;20030;-65
2021/03/25 04:05:45;;;;;;;62.45;26.95;;;8.10;99.90;;;7.80;95.61;101910.97;5029664;28;20052;-65
2021/03/25 04:08:43;;;;;;;65.68;26.73;;;8.10;99.90;;;7.80;95.21;101899.28;5010148;28;20106;-66
2021/03/25 04:11:40;;;;;;;66.53;29.70;;;8.10;99.90;;;7.72;95.70;101907.34;5029083;28;20053;-65
2021/03/25 04:14:16;;;;;;;65.70;28.35;;;8.10;99.90;;;7.75;95.73;101901.63;5023004;28;20045;-65
2021/03/25 04:16:45;;;;;;;69.55;28.60;;;8.10;99.90;;;7.74;96.55;101905.34;5029144;28;20124;-66
2021/03/25 04:19:23;;;;;;;58.65;28.35;;;8.10;99.90;;;7.77;96.27;101902.34;4991061;28;20052;-66
2021/03/25 04:21:59;;;;;;;58.90;27.70;;;8.10;99.90;;;7.85;95.55;101905.13;5021503;28;20124;-64
2021/03/25 04:24:28;;;;;;;58.30;27.63;;;8.20;99.90;;;7.91;95.46;101890.91;5006290;28;20557;-66
2021/03/25 04:27:22;;;;;;;70.70;29.27;;;8.10;99.90;;;7.92;95.07;101892.63;5026708;28;20065;-65
2021/03/25 04:30:09;;;;;;;59.67;29.75;;;8.20;99.90;;;8.03;94.67;101892.38;5005199;28;20575;-65
2021/03/25 04:32:35;;;;;;;62.67;27.98;;;8.20;99.90;;;7.99;95.02;101891.00;5020398;28;20037;-65
2021/03/25 04:35:03;;;;;;;62.85;29.50;;;8.10;99.90;;;8.01;95.43;101886.28;4993966;28;20034;-65
2021/03/25 04:37:31;;;;;;;65.97;29.27;;;8.10;99.90;;;8.07;95.26;101882.91;5028876;28;20033;-66
2021/03/25 04:40:00;;;;;;;68.47;30.02;;;8.10;99.90;;;8.00;95.40;101881.88;5022634;28;20048;-64
2021/03/25 04:42:27;;;;;;;67.95;29.40;;;8.10;99.90;;;7.84;96.26;101885.28;5043616;28;20032;-64
2021/03/25 04:45:08;;;;;;;61.38;29.73;;;8.10;99.90;;;7.82;97.33;101886.44;5010644;28;20041;-65
2021/03/25 04:47:43;;;;;;;65.32;28.35;;;8.20;99.90;;;7.87;96.72;101894.97;5027607;28;20037;-65
2021/03/25 04:50:23;;;;;;;61.22;28.60;;;8.20;99.90;;;7.85;96.65;101886.13;5019127;28;20045;-65
2021/03/25 04:52:59;;;;;;;62.75;27.83;;;8.10;99.90;;;7.90;96.74;101889.25;5027535;28;20120;-65
2021/03/25 04:55:25;;;;;;;61.28;28.83;;;8.20;99.90;;;7.80;97.76;101888.44;5011032;28;20116;-65
2021/03/25 04:57:58;;;;;;;65.53;30.15;;;8.10;99.90;;;7.86;97.58;101877.00;4993021;28;20041;-65
2021/03/25 05:00:41;;;;;;;61.47;28.83;;;8.10;99.90;;;7.78;97.25;101882.38;5026778;28;20479;-65
2021/03/25 05:03:16;;;;;;;60.85;31.05;;;8.10;99.90;;;7.82;97.85;101884.59;5026014;28;20817;-65
2021/03/25 05:05:42;;;;;;;63.50;28.35;;;8.10;99.90;;;7.86;97.97;101877.00;5010803;28;20040;-66
2021/03/25 05:08:16;;;;;;;70.78;30.50;;;8.10;99.90;;;7.94;97.62;101877.06;5027492;28;20033;-65
2021/03/25 05:10:46;;;;;;;57.15;28.65;;;8.00;99.90;;;7.88;97.69;101881.25;5028296;28;20604;-65
2021/03/25 05:13:26;;;;;;;66.15;28.40;;;8.10;99.90;;;7.89;97.88;101876.69;5015861;28;20044;-65
2021/03/25 05:16:34;;;;;;;66.90;29.40;;;8.00;99.90;;;7.88;97.63;101877.69;5021063;28;20044;-65
2021/03/25 05:19:17;;;;;;;64.55;28.50;;;8.10;99.90;;;7.95;97.73;101876.03;5029253;28;20037;-65
2021/03/25 05:22:08;;;;;;;71.63;27.52;;;8.10;99.90;;;7.94;97.77;101872.47;5009666;28;20033;-64
2021/03/25 05:25:01;;;;;;;60.95;27.55;;;8.10;99.90;;;7.97;97.16;101868.63;5022981;28;20131;-66
2021/03/25 05:27:51;;;;;;;69.90;29.63;;;8.10;99.90;;;7.93;98.01;101864.50;5024788;28;20175;-64
2021/03/25 05:30:33;;;;;;;62.08;27.95;;;8.10;99.90;;;7.94;98.42;101864.34;5006781;28;20041;-64
2021/03/25 05:33:04;;;;;;;63.38;27.90;;;8.10;99.90;;;8.09;97.33;101867.34;5027734;28;20034;-64
2021/03/25 05:36:01;;;;;;;67.47;29.08;;;8.10;99.90;;;8.09;97.48;101867.34;5008780;28;20030;-64
2021/03/25 05:38:28;;;;;;;66.50;28.23;;;8.00;99.90;;;7.99;97.56;101859.31;5025100;28;20030;-65
2021/03/25 05:41:31;;;;;;;58.42;27.23;;;8.10;99.90;;;7.93;97.53;101862.66;5024855;28;20029;-65
2021/03/25 05:44:22;;;;;;;60.85;27.17;;;8.10;99.90;;;7.91;98.10;101864.66;5008541;28;20079;-65
2021/03/25 05:47:10;;;;;;;61.88;26.48;;;8.20;99.90;;;8.01;98.08;101853.75;5027852;28;20450;-65
2021/03/25 05:50:20;;;;;;;55.17;25.20;;;8.20;99.90;;;8.11;97.11;101854.47;5025579;28;20056;-65
2021/03/25 05:53:13;;;;;;;59.35;26.58;;;8.20;99.90;;;8.13;97.32;101857.88;5012014;28;20045;-65
2021/03/25 05:56:09;;;;;;;63.22;26.83;;;8.20;99.90;;;8.11;98.02;101867.19;5028803;28;20037;-66
2021/03/25 05:58:45;;;;;;;62.17;29.65;;;8.20;99.90;;;8.08;98.70;101881.91;5023970;28;20034;-64
2021/03/25 06:01:42;;;;;;;55.17;26.75;;;8.30;99.90;;;8.18;98.72;101893.50;5008002;28;20026;-65
2021/03/25 06:04:29;;;;;;;62.15;27.83;;;8.40;99.90;;;8.33;98.20;101897.38;5025076;28;20124;-64
2021/03/25 06:07:06;;;;;;;63.60;27.98;;;8.40;99.90;;;8.35;97.49;101898.03;5026527;28;20076;-65
2021/03/25 06:10:00;;;;;;;60.72;26.77;;;8.50;99.90;;;8.23;97.33;101896.59;5029842;28;20144;-64
2021/03/25 06:12:47;;;;;;;63.07;28.67;;;8.50;99.90;;;8.37;97.24;101896.03;5043143;28;21479;-66
2021/03/25 06:15:53;;;;;;;61.40;26.58;;;8.50;99.90;;;8.35;98.51;101889.09;5032755;28;20099;-65
2021/03/25 06:18:48;;;;;;;63.47;25.60;;;8.60;99.90;;;8.45;98.36;101889.81;5022388;28;20033;-65
2021/03/25 06:21:47;;;;;;;62.03;25.67;;;8.60;99.90;;;8.53;98.11;101892.56;5023174;28;20056;-64
2021/03/25 06:24:51;;;;;;;55.22;25.92;;;8.70;99.90;;;8.59;97.30;101886.47;5039236;28;20069;-65
2021/03/25 06:28:00;;;;;;;56.15;26.00;;;8.80;99.90;;;8.62;97.82;101888.03;5032383;28;20052;-65
2021/03/25 06:30:39;;;;;;;62.10;26.50;;;8.90;99.90;;;8.82;98.32;101896.75;5046822;28;20038;-64
2021/03/25 06:33:49;;;;;;;55.70;25.42;;;9.00;99.90;;;9.03;96.97;101887.19;5032244;28;20068;-66
2021/03/25 06:36:19;;;;;;;54.25;26.27;;;9.10;99.90;;;9.20;96.64;101890.81;4979082;28;20061;-64
2021/03/25 06:38:55;;;;;;;59.50;26.42;;;9.30;99.90;;;9.38;95.79;101888.78;5017484;28;20087;-68
2021/03/25 06:41:28;;;;;;;56.13;25.52;;;9.50;99.90;;;9.57;95.10;101882.22;5015608;28;20037;-66
2021/03/25 06:44:03;;;;;;;58.13;26.67;;;9.60;99.90;;;9.62;95.00;101884.41;5033822;28;20039;-64
2021/03/25 06:46:42;;;;;;;55.70;26.48;;;9.70;99.90;;;9.78;94.66;101893.44;5031761;28;20095;-65
2021/03/25 06:49:36;;;;;;;54.00;25.25;;;9.90;99.90;;;9.92;93.74;101891.94;5016401;28;20045;-66
2021/03/25 06:52:16;;;;;;;60.92;26.08;;;10.00;99.90;;;10.22;92.50;101893.09;5018215;28;20080;-64
2021/03/25 06:54:41;;;;;;;54.58;24.10;;;10.20;99.90;;;10.54;91.74;101895.75;5033650;28;20121;-65
2021/03/25 06:57:16;;;;;;;60.33;25.80;;;10.40;99.90;;;11.05;90.11;101896.25;5031171;28;20033;-65
2021/03/25 06:59:43;;;;;;;61.58;26.38;;;10.70;99.90;;;11.66;87.33;101897.25;5017035;28;20025;-65
2021/03/25 07:02:09;;;;;;;61.00;26.13;;;11.10;99.90;;;11.94;81.73;101898.44;5044187;28;20033;-66
2021/03/25 07:04:45;;;;;;;48.33;23.80;;;11.50;99.90;;;12.22;81.22;101906.00;5033193;28;20043;-64
2021/03/25 07:07:27;;;;;;;56.92;24.25;;;11.90;99.90;;;13.50;77.77;101903.81;5031667;28;20037;-67
2021/03/25 07:09:53;;;;;;;49.30;24.67;;;12.50;99.90;;;14.38;72.20;101911.56;5013700;28;20045;-69
2021/03/25 07:12:33;;;;;;;44.60;23.02;;;13.30;99.90;;;14.68;69.57;101910.34;4998749;28;20033;-67
2021/03/25 07:15:00;;;;;;;48.83;22.40;;;13.80;99.90;;;14.55;67.41;101904.78;5031825;28;20061;-67
2021/03/25 07:17:42;;;;;;;44.58;22.20;;;14.10;99.90;;;14.60;67.34;101910.50;5029741;28;20038;-65
2021/03/25 07:20:37;;;;;;;47.20;22.42;;;14.20;99.90;;;14.20;66.78;101912.09;5030095;28;20038;-66
2021/03/25 07:23:15;;;;;;;43.10;21.67;;;14.20;99.90;;;14.23;67.43;101911.66;5020122;28;20115;-67
2021/03/25 07:25:50;;;;;;;50.38;20.70;;;14.10;99.90;;;14.27;68.34;101921.19;5012782;28;20079;-65
2021/03/25 07:28:24;;;;;;;38.65;20.05;;;14.10;99.90;;;13.97;68.18;101926.00;5013051;28;20461;-67
2021/03/25 07:30:59;;;;;;;47.45;21.70;;;14.00;99.90;;;13.54;69.98;101918.81;5015955;28;20561;-66
2021/03/25 07:33:38;;;;;;;44.53;19.65;;;13.80;99.90;;;13.53;69.96;101923.44;5015981;28;20036;-66
2021/03/25 07:36:14;;;;;;;49.45;20.05;;;13.70;99.90;;;13.35;71.16;101921.09;5040618;28;20029;-67
2021/03/25 07:38:42;;;;;;;45.83;20.40;;;13.60;99.90;;;13.34;71.47;101930.34;5031228;28;20033;-66
2021/03/25 07:41:31;;;;;;;41.67;20.85;;;13.50;99.90;;;13.13;72.52;101932.16;5014902;28;20068;-66
2021/03/25 07:44:04;;;;;;;43.22;19.70;;;13.40;99.90;;;13.08;72.58;101940.94;5032380;28;20046;-67
2021/03/25 07:46:47;;;;;;;36.63;19.33;;;13.30;99.90;;;12.92;73.40;101941.13;5031529;28;20435;-66
2021/03/25 07:49:26;;;;;;;42.33;18.02;;;13.20;99.90;;;12.80;73.71;101938.00;5032525;28;20171;-65
2021/03/25 07:52:04;;;;;;;37.03;18.63;;;13.00;99.90;;;12.47;75.45;101953.91;5015714;28;20166;-66
2021/03/25 07:54:35;;;;;;;45.70;17.85;;;12.80;99.90;;;12.45;75.57;101947.75;5031179;28;20021;-66
2021/03/25 07:57:19;;;;;;;38.97;17.20;;;12.60;99.90;;;12.34;75.97;101948.22;5032581;28;20064;-66
2021/03/25 07:59:55;;;;;;;40.67;16.88;;;12.40;99.90;;;12.17;77.56;101957.59;5026330;28;20033;-66
2021/03/25 08:02:37;;;;;;;37.83;16.67;;;12.30;99.90;;;12.26;77.16;101945.56;5014239;28;20080;-65
2021/03/25 08:05:28;;;;;;;30.75;16.73;;;12.30;99.90;;;11.99;79.46;101947.81;5026465;28;20034;-65
2021/03/25 08:08:01;;;;;;;32.22;14.93;;;12.10;99.90;;;11.93;79.96;101945.00;5039413;28;20353;-65
2021/03/25 08:10:40;;;;;;;34.25;16.42;;;12.00;99.90;;;11.82;81.58;101954.44;5031704;28;20037;-66
2021/03/25 08:13:28;;;;;;;34.92;15.75;;;12.00;99.90;;;11.69;82.81;101951.44;5027958;28;20459;-66
2021/03/25 08:16:07;;;;;;;29.35;14.60;;;11.80;99.90;;;11.68;83.39;101951.59;5013374;28;20476;-66
2021/03/25 08:18:58;;;;;;;32.88;16.38;;;11.70;99.90;;;11.69;84.97;101953.31;5030334;28;20033;-66
2021/03/25 08:21:59;;;;;;;28.85;15.40;;;11.80;99.90;;;11.75;85.04;101953.47;5030673;28;20116;-66
2021/03/25 08:24:58;;;;;;;37.05;17.42;;;11.80;99.90;;;11.69;85.25;101962.34;5005271;28;20045;-65
2021/03/25 08:27:52;;;;;;;30.17;16.10;;;11.80;99.90;;;11.63;85.39;101960.31;5031668;28;20057;-65
2021/03/25 08:30:38;;;;;;;32.70;16.73;;;11.80;99.90;;;11.56;85.64;101964.81;5031256;28;20045;-66
2021/03/25 08:33:33;;;;;;;32.90;17.55;;;11.70;99.90;;;11.42;86.97;101963.69;5031690;28;20121;-66
2021/03/25 08:36:37;;;;;;;31.23;15.63;;;11.60;99.90;;;11.26;87.01;101953.72;5045515;28;20121;-66
2021/03/25 08:39:42;;;;;;;31.13;15.13;;;11.50;99.90;;;11.19;87.35;101962.78;5030810;28;20037;-67
2021/03/25 08:42:30;;;;;;;40.20;15.93;;;11.40;99.90;;;11.10;89.00;101959.22;5026955;28;20032;-65
2021/03/25 08:45:14;;;;;;;28.40;14.70;;;11.30;99.90;;;11.01;89.42;101960.28;5015008;28;20040;-65
2021/03/25 08:48:00;;;;;;;25.95;14.20;;;11.20;99.90;;;11.01;90.51;101957.56;5028838;28;20045;-67
2021/03/25 08:51:00;;;;;;;28.10;15.13;;;11.20;99.90;;;10.78;91.11;101948.44;5014597;28;20046;-67
2021/03/25 08:53:33;;;;;;;25.27;13.10;;;11.00;99.90;;;10.63;92.65;101953.75;5021298;28;20048;-66
2021/03/25 08:56:08;;;;;;;23.02;14.20;;;10.90;99.90;;;10.86;91.82;101953.88;5029103;28;20041;-66
2021/03/25 08:58:38;;;;;;;26.88;14.63;;;10.90;99.90;;;10.81;92.79;101959.84;5030688;28;20037;-65
2021/03/25 09:01:15;;;;;;;29.05;15.30;;;10.90;99.90;;;10.91;92.09;101959.66;5031094;28;20033;-65
2021/03/25 09:03:54;;;;;;;28.42;14.65;;;10.90;99.90;;;10.87;92.36;101961.03;5029741;28;20079;-64
2021/03/25 09:06:30;;;;;;;28.25;14.63;;;10.90;99.90;;;10.97;92.09;101958.09;5029329;28;20039;-65
2021/03/25 09:09:12;;;;;;;29.63;15.10;;;10.90;99.90;;;10.88;93.05;101954.56;5031438;28;20077;-63
2021/03/25 09:11:38;;;;;;;31.67;14.10;;;11.00;99.90;;;11.16;91.94;101953.09;5025626;28;20049;-64
2021/03/25 09:14:04;;;;;;;28.17;13.13;;;11.00;99.90;;;11.13;92.10;101958.88;5029418;28;20036;-64
2021/03/25 09:16:36;;;;;;;25.48;13.20;;;11.10;99.90;;;11.40;92.08;101954.81;5028834;28;20037;-62
2021/03/25 09:19:15;;;;;;;21.95;12.60;;;11.20;99.90;;;11.19;93.29;101957.31;5013291;28;20037;-63
2021/03/25 09:21:47;;;;;;;25.10;14.15;;;11.30;99.90;;;11.55;91.35;101952.19;5029849;28;20044;-63
2021/03/25 09:24:15;;;;;;;25.45;12.90;;;11.50;99.90;;;11.59;90.57;101954.41;5035138;28;20094;-64
2021/03/25 09:26:40;;;;;;;24.77;13.82;;;11.50;99.90;;;11.61;90.42;101960.53;5027754;28;20087;-63
2021/03/25 09:29:13;;;;;;;24.92;12.65;;;11.60;99.90;;;11.59;90.35;101950.81;5031195;28;20029;-64
2021/03/25 09:32:06;;;;;;;20.42;11.45;;;11.60;99.90;;;11.55;90.29;101949.47;5028045;28;20087;-64
2021/03/25 09:34:45;;;;;;;19.98;11.02;;;11.70;99.90;;;11.61;90.29;101951.50;5029652;28;20029;-63
2021/03/25 09:37:24;;;;;;;15.73;9.40;;;11.60;99.90;;;11.67;89.81;101949.91;5042270;28;20385;-65
2021/03/25 09:40:41;;;;;;;14.82;8.68;;;11.70;99.90;;;11.47;89.70;101949.53;5047286;28;20396;-67
2021/03/25 09:43:25;;;;;;;14.98;9.20;;;11.60;99.90;;;11.23;90.38;101943.16;5026898;28;20479;-66
2021/03/25 09:45:53;;;;;;;17.47;9.80;;;11.60;99.90;;;11.52;89.07;101947.09;5024729;28;20044;-64
2021/03/25 09:48:28;;;;;;;12.77;7.88;;;11.50;99.90;;;11.61;88.59;101948.78;5029030;28;20370;-63
2021/03/25 09:51:07;;;;;;;13.30;9.00;;;11.60;99.90;;;11.67;89.01;101939.84;5043017;28;20045;-63
2021/03/25 09:54:21;;;;;;;13.63;9.35;;;11.70;99.90;;;12.27;87.76;101939.94;5030233;28;20082;-62
2021/03/25 09:57:07;;;;;;;13.40;8.57;;;12.00;99.90;;;12.95;84.31;101940.75;4992364;28;20037;-66
2021/03/25 09:59:54;;;;;;;11.23;9.00;;;12.40;99.90;;;13.58;83.67;101942.84;5030031;28;20033;-64
2021/03/25 10:02:46;;;;;;;14.48;9.32;;;13.10;99.90;;;13.89;81.63;101934.31;5029839;28;20033;-64
2021/03/25 10:05:35;;;;;;;16.17;8.88;;;13.50;99.90;;;14.10;78.46;101937.06;5042437;28;20377;-66
2021/03/25 10:08:09;;;;;;;16.80;9.65;;;13.90;99.90;;;14.18;77.86;101945.13;5026542;28;20069;-64
2021/03/25 10:10:43;;;;;;;13.67;9.43;;;14.10;99.90;;;14.23;75.73;101940.94;5045720;28;20487;-64
2021/03/25 10:13:12;;;;;;;16.48;9.32;;;14.10;99.90;;;13.71;77.35;101950.34;5028026;28;20049;-64
2021/03/25 10:16:21;;;;;;;21.40;9.18;;;13.90;99.90;;;13.51;78.05;101946.53;5027091;28;20144;-66
2021/03/25 10:18:50;;;;;;;19.60;9.48;;;13.70;99.90;;;13.31;78.18;101947.16;5030723;28;20038;-65
2021/03/25 10:21:39;;;;;;;18.63;9.15;;;13.60;99.90;;;12.93;79.08;101948.28;5020180;28;20049;-63
2021/03/25 10:24:24;;;;;;;18.73;10.38;;;13.30;99.90;;;12.90;79.36;101954.13;5029891;28;20495;-64
2021/03/25 10:27:13;;;;;;;20.52;11.13;;;13.10;99.90;;;12.38;82.65;101954.16;5011660;28;20087;-66
2021/03/25 10:29:40;;;;;;;19.95;11.32;;;12.80;99.90;;;12.59;81.62;101963.34;5027913;28;20484;-65
2021/03/25 10:32:43;;;;;;;31.13;11.57;;;12.60;99.90;;;12.41;82.09;101957.38;5010953;28;20103;-64
2021/03/25 10:35:27;;;;;;;21.25;11.63;;;12.60;99.90;;;12.70;83.33;101960.16;5029473;28;20038;-64
2021/03/25 10:37:57;;;;;;;17.33;10.90;;;12.70;99.90;;;13.01;81.67;101953.66;5029909;28;20139;-64
2021/03/25 10:40:39;;;;;;;23.30;11.95;;;12.90;99.90;;;13.09;80.63;101953.56;5010553;28;20030;-65
2021/03/25 10:43:13;;;;;;;15.00;10.43;;;13.00;99.90;;;12.95;79.88;101958.00;5028848;28;20521;-65
2021/03/25 10:46:00;;;;;;;17.42;11.02;;;13.10;99.90;;;13.18;78.73;101952.44;5028758;28;20042;-66
2021/03/25 10:48:38;;;;;;;20.67;9.88;;;13.20;99.90;;;13.05;77.86;101949.50;5029674;28;20064;-63
2021/03/25 10:51:13;;;;;;;16.63;10.40;;;13.20;99.90;;;12.88;78.90;101956.19;5026302;28;20497;-65
2021/03/25 10:53:53;;;;;;;22.10;11.00;;;13.10;99.90;;;13.10;78.63;101956.09;5029825;28;20122;-64
2021/03/25 10:56:29;;;;;;;19.15;10.38;;;13.10;99.90;;;13.23;78.16;101954.59;5028420;28;20030;-65
2021/03/25 10:59:00;;;;;;;16.58;10.90;;;13.20;99.90;;;13.56;75.64;101949.53;5032611;28;20029;-64
2021/03/25 11:01:33;;;;;;;17.70;11.23;;;13.30;99.90;;;13.70;74.97;101952.22;5032186;28;20042;-64